sensor_id;sensor_type;location;lat;lon;timestamp;P1;durP1;ratioP1;P2;durP2;ratioP2
25758;SDS011;13604;52.496;13.456;2023-12-20T00:02:02;31.13;;;14.25;;
25758;SDS011;13604;52.496;13.456;2023-12-20T00:04:28;21.05;;;13.02;;
25758;SDS011;13604;52.496;13.456;2023-12-20T00:06:53;19.77;;;11.88;;
25758;SDS011;13604;52.496;13.456;2023-12-20T00:09:18;23.45;;;12.70;;
25758;SDS011;13604;52.496;13.456;2023-12-20T00:11:44;23.30;;;12.98;;
25758;SDS011;13604;52.496;13.456;2023-12-20T00:14:09;20.92;;;12.80;;
25758;SDS011;13604;52.496;13.456;2023-12-20T00:16:34;18.52;;;12.52;;
25758;SDS011;13604;52.496;13.456;2023-12-20T00:19:00;20.58;;;12.13;;
25758;SDS011;13604;52.496;13.456;2023-12-20T00:21:26;18.98;;;12.30;;
25758;SDS011;13604;52.496;13.456;2023-12-20T00:23:51;18.55;;;12.68;;
25758;SDS011;13604;52.496;13.456;2023-12-20T00:26:16;18.70;;;12.10;;
25758;SDS011;13604;52.496;13.456;2023-12-20T00:28:42;18.25;;;11.38;;
25758;SDS011;13604;52.496;13.456;2023-12-20T00:31:07;19.08;;;12.20;;
25758;SDS011;13604;52.496;13.456;2023-12-20T00:33:33;17.52;;;10.57;;
25758;SDS011;13604;52.496;13.456;2023-12-20T00:35:58;16.48;;;11.48;;
25758;SDS011;13604;52.496;13.456;2023-12-20T00:38:23;16.92;;;11.32;;
25758;SDS011;13604;52.496;13.456;2023-12-20T00:40:49;20.10;;;11.43;;
25758;SDS011;13604;52.496;13.456;2023-12-20T00:43:14;16.80;;;10.93;;
25758;SDS011;13604;52.496;13.456;2023-12-20T00:45:40;19.20;;;11.07;;
25758;SDS011;13604;52.496;13.456;2023-12-20T00:48:05;17.50;;;11.27;;
25758;SDS011;13604;52.496;13.456;2023-12-20T00:50:31;20.70;;;12.07;;
25758;SDS011;13604;52.496;13.456;2023-12-20T00:52:56;17.90;;;10.55;;
25758;SDS011;13604;52.496;13.456;2023-12-20T00:55:22;17.13;;;10.48;;
25758;SDS011;13604;52.496;13.456;2023-12-20T00:57:47;17.60;;;11.02;;
25758;SDS011;13604;52.496;13.456;2023-12-20T01:00:12;16.80;;;10.43;;
25758;SDS011;13604;52.496;13.456;2023-12-20T01:02:38;15.55;;;9.80;;
25758;SDS011;13604;52.496;13.456;2023-12-20T01:05:04;13.20;;;9.13;;
25758;SDS011;13604;52.496;13.456;2023-12-20T01:07:29;16.30;;;10.52;;
25758;SDS011;13604;52.496;13.456;2023-12-20T01:09:55;15.77;;;9.82;;
25758;SDS011;13604;52.496;13.456;2023-12-20T01:12:20;16.02;;;10.43;;
25758;SDS011;13604;52.496;13.456;2023-12-20T01:14:46;16.45;;;10.60;;
25758;SDS011;13604;52.496;13.456;2023-12-20T01:17:11;16.50;;;10.32;;
25758;SDS011;13604;52.496;13.456;2023-12-20T01:19:36;16.33;;;9.85;;
25758;SDS011;13604;52.496;13.456;2023-12-20T01:22:01;14.85;;;9.88;;
25758;SDS011;13604;52.496;13.456;2023-12-20T01:24:27;15.65;;;10.32;;
25758;SDS011;13604;52.496;13.456;2023-12-20T01:26:52;16.23;;;10.57;;
25758;SDS011;13604;52.496;13.456;2023-12-20T01:29:17;16.90;;;9.68;;
25758;SDS011;13604;52.496;13.456;2023-12-20T01:31:43;15.43;;;9.95;;
25758;SDS011;13604;52.496;13.456;2023-12-20T01:34:08;16.27;;;10.73;;
25758;SDS011;13604;52.496;13.456;2023-12-20T01:36:33;15.05;;;10.07;;
25758;SDS011;13604;52.496;13.456;2023-12-20T01:38:59;15.65;;;9.70;;
25758;SDS011;13604;52.496;13.456;2023-12-20T01:41:24;13.15;;;9.43;;
25758;SDS011;13604;52.496;13.456;2023-12-20T01:43:50;14.95;;;9.68;;
25758;SDS011;13604;52.496;13.456;2023-12-20T01:46:15;16.13;;;9.45;;
25758;SDS011;13604;52.496;13.456;2023-12-20T01:48:42;13.20;;;8.60;;
25758;SDS011;13604;52.496;13.456;2023-12-20T01:51:07;14.75;;;9.38;;
25758;SDS011;13604;52.496;13.456;2023-12-20T01:53:33;15.35;;;9.23;;
25758;SDS011;13604;52.496;13.456;2023-12-20T01:55:59;14.82;;;8.65;;
25758;SDS011;13604;52.496;13.456;2023-12-20T01:58:26;13.50;;;8.55;;
25758;SDS011;13604;52.496;13.456;2023-12-20T02:00:52;14.85;;;8.82;;
25758;SDS011;13604;52.496;13.456;2023-12-20T02:03:19;15.63;;;8.95;;
25758;SDS011;13604;52.496;13.456;2023-12-20T02:05:44;16.08;;;9.35;;
25758;SDS011;13604;52.496;13.456;2023-12-20T02:08:10;14.38;;;8.75;;
25758;SDS011;13604;52.496;13.456;2023-12-20T02:10:36;11.95;;;8.27;;
25758;SDS011;13604;52.496;13.456;2023-12-20T02:13:01;12.45;;;8.15;;
25758;SDS011;13604;52.496;13.456;2023-12-20T02:15:27;16.50;;;8.23;;
25758;SDS011;13604;52.496;13.456;2023-12-20T02:17:52;11.63;;;7.95;;
25758;SDS011;13604;52.496;13.456;2023-12-20T02:20:18;15.10;;;8.60;;
25758;SDS011;13604;52.496;13.456;2023-12-20T02:22:44;11.77;;;8.30;;
25758;SDS011;13604;52.496;13.456;2023-12-20T02:25:09;11.07;;;7.28;;
25758;SDS011;13604;52.496;13.456;2023-12-20T02:27:34;12.40;;;6.93;;
25758;SDS011;13604;52.496;13.456;2023-12-20T02:30:00;13.35;;;7.18;;
25758;SDS011;13604;52.496;13.456;2023-12-20T02:32:25;11.60;;;7.32;;
25758;SDS011;13604;52.496;13.456;2023-12-20T02:34:51;16.73;;;7.72;;
25758;SDS011;13604;52.496;13.456;2023-12-20T02:37:17;12.38;;;7.65;;
25758;SDS011;13604;52.496;13.456;2023-12-20T02:39:42;10.80;;;7.28;;
25758;SDS011;13604;52.496;13.456;2023-12-20T02:42:07;13.80;;;7.20;;
25758;SDS011;13604;52.496;13.456;2023-12-20T02:44:33;12.88;;;7.35;;
25758;SDS011;13604;52.496;13.456;2023-12-20T02:46:58;11.40;;;7.45;;
25758;SDS011;13604;52.496;13.456;2023-12-20T02:49:23;12.70;;;7.57;;
25758;SDS011;13604;52.496;13.456;2023-12-20T02:51:49;15.90;;;8.82;;
25758;SDS011;13604;52.496;13.456;2023-12-20T02:54:14;13.07;;;8.68;;
25758;SDS011;13604;52.496;13.456;2023-12-20T02:56:39;12.45;;;8.40;;
25758;SDS011;13604;52.496;13.456;2023-12-20T02:59:05;18.48;;;9.95;;
25758;SDS011;13604;52.496;13.456;2023-12-20T03:01:34;22.08;;;10.15;;
25758;SDS011;13604;52.496;13.456;2023-12-20T03:04:00;18.10;;;10.10;;
25758;SDS011;13604;52.496;13.456;2023-12-20T03:06:25;18.05;;;9.90;;
25758;SDS011;13604;52.496;13.456;2023-12-20T03:08:50;19.00;;;9.85;;
25758;SDS011;13604;52.496;13.456;2023-12-20T03:11:16;18.95;;;9.50;;
25758;SDS011;13604;52.496;13.456;2023-12-20T03:13:41;17.50;;;8.80;;
25758;SDS011;13604;52.496;13.456;2023-12-20T03:16:09;19.45;;;9.98;;
25758;SDS011;13604;52.496;13.456;2023-12-20T03:18:36;19.92;;;10.52;;
25758;SDS011;13604;52.496;13.456;2023-12-20T03:21:01;16.33;;;7.13;;
25758;SDS011;13604;52.496;13.456;2023-12-20T03:23:26;19.88;;;8.25;;
25758;SDS011;13604;52.496;13.456;2023-12-20T03:25:52;18.67;;;7.82;;
25758;SDS011;13604;52.496;13.456;2023-12-20T03:28:17;19.30;;;9.05;;
25758;SDS011;13604;52.496;13.456;2023-12-20T03:30:43;23.40;;;7.22;;
25758;SDS011;13604;52.496;13.456;2023-12-20T03:33:08;24.88;;;8.00;;
25758;SDS011;13604;52.496;13.456;2023-12-20T03:35:34;17.77;;;7.28;;
25758;SDS011;13604;52.496;13.456;2023-12-20T03:37:59;21.92;;;5.57;;
25758;SDS011;13604;52.496;13.456;2023-12-20T03:40:25;12.48;;;5.60;;
25758;SDS011;13604;52.496;13.456;2023-12-20T03:42:50;16.70;;;6.25;;
25758;SDS011;13604;52.496;13.456;2023-12-20T03:45:16;16.80;;;5.70;;
25758;SDS011;13604;52.496;13.456;2023-12-20T03:47:41;19.73;;;5.20;;
25758;SDS011;13604;52.496;13.456;2023-12-20T03:50:07;16.02;;;4.82;;
25758;SDS011;13604;52.496;13.456;2023-12-20T03:52:32;15.18;;;4.72;;
25758;SDS011;13604;52.496;13.456;2023-12-20T03:54:57;12.35;;;4.80;;
25758;SDS011;13604;52.496;13.456;2023-12-20T03:57:23;11.88;;;4.40;;
25758;SDS011;13604;52.496;13.456;2023-12-20T03:59:48;8.02;;;4.35;;
25758;SDS011;13604;52.496;13.456;2023-12-20T04:02:13;13.75;;;4.47;;
25758;SDS011;13604;52.496;13.456;2023-12-20T04:04:39;17.17;;;4.80;;
25758;SDS011;13604;52.496;13.456;2023-12-20T04:07:04;13.13;;;3.83;;
25758;SDS011;13604;52.496;13.456;2023-12-20T04:09:29;21.17;;;4.40;;
25758;SDS011;13604;52.496;13.456;2023-12-20T04:11:54;19.20;;;3.88;;
25758;SDS011;13604;52.496;13.456;2023-12-20T04:14:20;19.45;;;3.75;;
25758;SDS011;13604;52.496;13.456;2023-12-20T04:16:45;14.70;;;3.67;;
25758;SDS011;13604;52.496;13.456;2023-12-20T04:19:10;17.52;;;4.13;;
25758;SDS011;13604;52.496;13.456;2023-12-20T04:21:36;17.17;;;4.18;;
25758;SDS011;13604;52.496;13.456;2023-12-20T04:24:01;12.20;;;3.95;;
25758;SDS011;13604;52.496;13.456;2023-12-20T04:26:26;15.30;;;3.60;;
25758;SDS011;13604;52.496;13.456;2023-12-20T04:28:52;15.43;;;3.75;;
25758;SDS011;13604;52.496;13.456;2023-12-20T04:31:17;17.15;;;3.75;;
25758;SDS011;13604;52.496;13.456;2023-12-20T04:33:42;16.05;;;3.55;;
25758;SDS011;13604;52.496;13.456;2023-12-20T04:36:08;21.60;;;3.25;;
25758;SDS011;13604;52.496;13.456;2023-12-20T04:38:34;20.25;;;3.80;;
25758;SDS011;13604;52.496;13.456;2023-12-20T04:40:59;10.60;;;2.92;;
25758;SDS011;13604;52.496;13.456;2023-12-20T04:43:24;17.15;;;2.88;;
25758;SDS011;13604;52.496;13.456;2023-12-20T04:45:50;15.57;;;2.95;;
25758;SDS011;13604;52.496;13.456;2023-12-20T04:48:15;22.85;;;3.50;;
25758;SDS011;13604;52.496;13.456;2023-12-20T04:50:40;19.45;;;3.63;;
25758;SDS011;13604;52.496;13.456;2023-12-20T04:53:06;14.05;;;3.10;;
25758;SDS011;13604;52.496;13.456;2023-12-20T04:55:31;29.35;;;3.55;;
25758;SDS011;13604;52.496;13.456;2023-12-20T04:57:56;9.30;;;3.40;;
25758;SDS011;13604;52.496;13.456;2023-12-20T05:00:22;19.30;;;3.08;;
25758;SDS011;13604;52.496;13.456;2023-12-20T05:02:47;20.40;;;4.18;;
25758;SDS011;13604;52.496;13.456;2023-12-20T05:05:12;15.13;;;3.50;;
25758;SDS011;13604;52.496;13.456;2023-12-20T05:07:40;19.42;;;3.58;;
25758;SDS011;13604;52.496;13.456;2023-12-20T05:10:05;14.77;;;3.60;;
25758;SDS011;13604;52.496;13.456;2023-12-20T05:12:32;15.52;;;3.70;;
25758;SDS011;13604;52.496;13.456;2023-12-20T05:14:58;17.23;;;3.63;;
25758;SDS011;13604;52.496;13.456;2023-12-20T05:17:23;10.07;;;3.85;;
25758;SDS011;13604;52.496;13.456;2023-12-20T05:19:49;11.43;;;3.70;;
25758;SDS011;13604;52.496;13.456;2023-12-20T05:22:14;19.42;;;3.58;;
25758;SDS011;13604;52.496;13.456;2023-12-20T05:24:39;21.85;;;3.70;;
25758;SDS011;13604;52.496;13.456;2023-12-20T05:27:05;13.60;;;3.60;;
25758;SDS011;13604;52.496;13.456;2023-12-20T05:29:30;18.73;;;3.33;;
25758;SDS011;13604;52.496;13.456;2023-12-20T05:31:55;14.65;;;3.75;;
25758;SDS011;13604;52.496;13.456;2023-12-20T05:34:20;14.65;;;3.85;;
25758;SDS011;13604;52.496;13.456;2023-12-20T05:36:46;19.17;;;3.45;;
25758;SDS011;13604;52.496;13.456;2023-12-20T05:39:11;20.77;;;3.80;;
25758;SDS011;13604;52.496;13.456;2023-12-20T05:41:37;13.75;;;3.42;;
25758;SDS011;13604;52.496;13.456;2023-12-20T05:44:02;12.95;;;3.00;;
25758;SDS011;13604;52.496;13.456;2023-12-20T05:46:27;19.08;;;3.53;;
25758;SDS011;13604;52.496;13.456;2023-12-20T05:48:53;14.50;;;2.83;;
25758;SDS011;13604;52.496;13.456;2023-12-20T05:51:18;24.48;;;3.95;;
25758;SDS011;13604;52.496;13.456;2023-12-20T05:53:43;10.82;;;3.17;;
25758;SDS011;13604;52.496;13.456;2023-12-20T05:56:09;16.60;;;3.67;;
25758;SDS011;13604;52.496;13.456;2023-12-20T05:58:35;15.50;;;3.47;;
25758;SDS011;13604;52.496;13.456;2023-12-20T06:01:03;28.00;;;3.95;;
25758;SDS011;13604;52.496;13.456;2023-12-20T06:03:29;25.05;;;3.63;;
25758;SDS011;13604;52.496;13.456;2023-12-20T06:05:54;17.33;;;3.67;;
25758;SDS011;13604;52.496;13.456;2023-12-20T06:08:20;24.35;;;4.68;;
25758;SDS011;13604;52.496;13.456;2023-12-20T06:10:45;23.73;;;3.72;;
25758;SDS011;13604;52.496;13.456;2023-12-20T06:13:10;17.75;;;3.38;;
25758;SDS011;13604;52.496;13.456;2023-12-20T06:15:37;16.38;;;4.05;;
25758;SDS011;13604;52.496;13.456;2023-12-20T06:18:03;12.57;;;3.60;;
25758;SDS011;13604;52.496;13.456;2023-12-20T06:20:28;15.45;;;3.10;;
25758;SDS011;13604;52.496;13.456;2023-12-20T06:22:53;14.13;;;2.83;;
25758;SDS011;13604;52.496;13.456;2023-12-20T06:25:19;16.95;;;2.78;;
25758;SDS011;13604;52.496;13.456;2023-12-20T06:27:44;18.52;;;3.42;;
25758;SDS011;13604;52.496;13.456;2023-12-20T06:30:09;22.38;;;3.38;;
25758;SDS011;13604;52.496;13.456;2023-12-20T06:32:35;12.68;;;2.83;;
25758;SDS011;13604;52.496;13.456;2023-12-20T06:35:00;14.80;;;3.20;;
25758;SDS011;13604;52.496;13.456;2023-12-20T06:37:26;15.02;;;3.47;;
25758;SDS011;13604;52.496;13.456;2023-12-20T06:39:51;18.08;;;2.78;;
25758;SDS011;13604;52.496;13.456;2023-12-20T06:42:16;12.00;;;3.00;;
25758;SDS011;13604;52.496;13.456;2023-12-20T06:44:42;13.73;;;2.47;;
25758;SDS011;13604;52.496;13.456;2023-12-20T06:47:07;11.55;;;3.00;;
25758;SDS011;13604;52.496;13.456;2023-12-20T06:49:32;17.58;;;3.47;;
25758;SDS011;13604;52.496;13.456;2023-12-20T06:51:58;10.32;;;2.67;;
25758;SDS011;13604;52.496;13.456;2023-12-20T06:54:23;13.80;;;2.75;;
25758;SDS011;13604;52.496;13.456;2023-12-20T06:56:48;9.25;;;3.45;;
25758;SDS011;13604;52.496;13.456;2023-12-20T06:59:14;18.58;;;3.58;;
25758;SDS011;13604;52.496;13.456;2023-12-20T07:01:39;21.67;;;3.75;;
25758;SDS011;13604;52.496;13.456;2023-12-20T07:04:04;13.88;;;3.28;;
25758;SDS011;13604;52.496;13.456;2023-12-20T07:06:30;16.95;;;3.83;;
25758;SDS011;13604;52.496;13.456;2023-12-20T07:08:55;14.23;;;2.97;;
25758;SDS011;13604;52.496;13.456;2023-12-20T07:11:20;11.68;;;3.05;;
25758;SDS011;13604;52.496;13.456;2023-12-20T07:13:46;15.52;;;3.22;;
25758;SDS011;13604;52.496;13.456;2023-12-20T07:16:11;14.60;;;3.28;;
25758;SDS011;13604;52.496;13.456;2023-12-20T07:18:36;22.27;;;3.38;;
25758;SDS011;13604;52.496;13.456;2023-12-20T07:21:02;17.90;;;3.30;;
25758;SDS011;13604;52.496;13.456;2023-12-20T07:23:28;14.38;;;3.35;;
25758;SDS011;13604;52.496;13.456;2023-12-20T07:25:53;9.05;;;3.20;;
25758;SDS011;13604;52.496;13.456;2023-12-20T07:28:18;14.98;;;3.78;;
25758;SDS011;13604;52.496;13.456;2023-12-20T07:30:44;13.65;;;3.63;;
25758;SDS011;13604;52.496;13.456;2023-12-20T07:33:09;15.23;;;3.60;;
25758;SDS011;13604;52.496;13.456;2023-12-20T07:35:34;16.10;;;3.92;;
25758;SDS011;13604;52.496;13.456;2023-12-20T07:38:00;12.75;;;3.65;;
25758;SDS011;13604;52.496;13.456;2023-12-20T07:40:25;11.77;;;3.28;;
25758;SDS011;13604;52.496;13.456;2023-12-20T07:42:50;13.52;;;3.92;;
25758;SDS011;13604;52.496;13.456;2023-12-20T07:45:16;11.43;;;2.63;;
25758;SDS011;13604;52.496;13.456;2023-12-20T07:47:41;14.80;;;3.05;;
25758;SDS011;13604;52.496;13.456;2023-12-20T07:50:06;13.98;;;2.80;;
25758;SDS011;13604;52.496;13.456;2023-12-20T07:52:32;10.60;;;2.65;;
25758;SDS011;13604;52.496;13.456;2023-12-20T07:54:57;13.25;;;2.85;;
25758;SDS011;13604;52.496;13.456;2023-12-20T07:57:23;10.93;;;3.03;;
25758;SDS011;13604;52.496;13.456;2023-12-20T07:59:48;16.50;;;2.25;;
25758;SDS011;13604;52.496;13.456;2023-12-20T08:02:14;12.98;;;2.70;;
25758;SDS011;13604;52.496;13.456;2023-12-20T08:04:39;18.05;;;2.50;;
25758;SDS011;13604;52.496;13.456;2023-12-20T08:07:05;10.05;;;2.85;;
25758;SDS011;13604;52.496;13.456;2023-12-20T08:09:31;14.80;;;2.70;;
25758;SDS011;13604;52.496;13.456;2023-12-20T08:11:57;16.52;;;3.13;;
25758;SDS011;13604;52.496;13.456;2023-12-20T08:14:24;16.90;;;2.85;;
25758;SDS011;13604;52.496;13.456;2023-12-20T08:16:49;12.43;;;2.90;;
25758;SDS011;13604;52.496;13.456;2023-12-20T08:19:15;15.25;;;2.90;;
25758;SDS011;13604;52.496;13.456;2023-12-20T08:21:40;12.40;;;2.42;;
25758;SDS011;13604;52.496;13.456;2023-12-20T08:24:05;10.60;;;2.70;;
25758;SDS011;13604;52.496;13.456;2023-12-20T08:26:32;16.15;;;3.17;;
25758;SDS011;13604;52.496;13.456;2023-12-20T08:28:57;17.48;;;3.10;;
25758;SDS011;13604;52.496;13.456;2023-12-20T08:31:23;23.80;;;3.33;;
25758;SDS011;13604;52.496;13.456;2023-12-20T08:33:48;12.23;;;2.17;;
25758;SDS011;13604;52.496;13.456;2023-12-20T08:36:14;13.45;;;2.80;;
25758;SDS011;13604;52.496;13.456;2023-12-20T08:38:39;9.48;;;2.30;;
25758;SDS011;13604;52.496;13.456;2023-12-20T08:41:05;14.20;;;2.60;;
25758;SDS011;13604;52.496;13.456;2023-12-20T08:43:31;10.95;;;2.53;;
25758;SDS011;13604;52.496;13.456;2023-12-20T08:45:57;19.25;;;2.63;;
25758;SDS011;13604;52.496;13.456;2023-12-20T08:48:22;18.63;;;3.25;;
25758;SDS011;13604;52.496;13.456;2023-12-20T08:50:48;14.75;;;2.47;;
25758;SDS011;13604;52.496;13.456;2023-12-20T08:53:15;14.02;;;2.22;;
25758;SDS011;13604;52.496;13.456;2023-12-20T08:55:41;15.70;;;2.75;;
25758;SDS011;13604;52.496;13.456;2023-12-20T08:58:06;8.30;;;1.88;;
25758;SDS011;13604;52.496;13.456;2023-12-20T09:00:33;13.55;;;2.20;;
25758;SDS011;13604;52.496;13.456;2023-12-20T09:02:58;15.23;;;3.30;;
25758;SDS011;13604;52.496;13.456;2023-12-20T09:05:24;14.98;;;3.58;;
25758;SDS011;13604;52.496;13.456;2023-12-20T09:07:50;13.63;;;2.83;;
25758;SDS011;13604;52.496;13.456;2023-12-20T09:10:15;17.25;;;3.08;;
25758;SDS011;13604;52.496;13.456;2023-12-20T09:12:40;18.85;;;2.65;;
25758;SDS011;13604;52.496;13.456;2023-12-20T09:15:07;13.55;;;2.28;;
25758;SDS011;13604;52.496;13.456;2023-12-20T09:17:33;11.82;;;2.50;;
25758;SDS011;13604;52.496;13.456;2023-12-20T09:19:59;9.23;;;2.67;;
25758;SDS011;13604;52.496;13.456;2023-12-20T09:22:25;19.35;;;2.95;;
25758;SDS011;13604;52.496;13.456;2023-12-20T09:24:50;14.63;;;2.47;;
25758;SDS011;13604;52.496;13.456;2023-12-20T09:27:15;15.60;;;2.78;;
25758;SDS011;13604;52.496;13.456;2023-12-20T09:29:41;19.25;;;2.95;;
25758;SDS011;13604;52.496;13.456;2023-12-20T09:32:06;11.77;;;2.83;;
25758;SDS011;13604;52.496;13.456;2023-12-20T09:34:31;15.13;;;2.97;;
25758;SDS011;13604;52.496;13.456;2023-12-20T09:36:57;14.93;;;2.67;;
25758;SDS011;13604;52.496;13.456;2023-12-20T09:39:22;14.35;;;2.80;;
25758;SDS011;13604;52.496;13.456;2023-12-20T09:42:10;10.63;;;2.30;;
25758;SDS011;13604;52.496;13.456;2023-12-20T09:44:36;11.32;;;3.28;;
25758;SDS011;13604;52.496;13.456;2023-12-20T09:47:02;15.30;;;2.72;;
25758;SDS011;13604;52.496;13.456;2023-12-20T09:49:28;13.02;;;2.95;;
25758;SDS011;13604;52.496;13.456;2023-12-20T09:51:55;16.80;;;2.25;;
25758;SDS011;13604;52.496;13.456;2023-12-20T09:54:22;12.50;;;2.65;;
25758;SDS011;13604;52.496;13.456;2023-12-20T09:56:48;18.88;;;2.67;;
25758;SDS011;13604;52.496;13.456;2023-12-20T09:59:13;13.30;;;2.58;;
25758;SDS011;13604;52.496;13.456;2023-12-20T10:01:40;12.38;;;2.47;;
25758;SDS011;13604;52.496;13.456;2023-12-20T10:04:07;6.63;;;2.88;;
25758;SDS011;13604;52.496;13.456;2023-12-20T10:06:41;12.98;;;2.85;;
25758;SDS011;13604;52.496;13.456;2023-12-20T10:09:07;18.58;;;3.85;;
25758;SDS011;13604;52.496;13.456;2023-12-20T10:11:34;13.15;;;2.78;;
25758;SDS011;13604;52.496;13.456;2023-12-20T10:14:00;18.38;;;2.78;;
25758;SDS011;13604;52.496;13.456;2023-12-20T10:16:26;19.08;;;3.67;;
25758;SDS011;13604;52.496;13.456;2023-12-20T10:18:52;15.55;;;2.58;;
25758;SDS011;13604;52.496;13.456;2023-12-20T10:21:18;8.02;;;2.33;;
25758;SDS011;13604;52.496;13.456;2023-12-20T10:23:44;17.20;;;3.22;;
25758;SDS011;13604;52.496;13.456;2023-12-20T10:26:09;9.00;;;2.47;;
25758;SDS011;13604;52.496;13.456;2023-12-20T10:28:34;12.45;;;2.72;;
25758;SDS011;13604;52.496;13.456;2023-12-20T10:31:00;16.35;;;3.38;;
25758;SDS011;13604;52.496;13.456;2023-12-20T10:33:26;17.55;;;3.13;;
25758;SDS011;13604;52.496;13.456;2023-12-20T10:35:53;16.88;;;2.97;;
25758;SDS011;13604;52.496;13.456;2023-12-20T10:38:19;16.55;;;3.10;;
25758;SDS011;13604;52.496;13.456;2023-12-20T10:40:45;18.65;;;3.15;;
25758;SDS011;13604;52.496;13.456;2023-12-20T10:43:11;14.50;;;3.30;;
25758;SDS011;13604;52.496;13.456;2023-12-20T10:45:37;18.80;;;3.35;;
25758;SDS011;13604;52.496;13.456;2023-12-20T10:48:02;12.23;;;3.00;;
25758;SDS011;13604;52.496;13.456;2023-12-20T10:50:29;14.00;;;2.95;;
25758;SDS011;13604;52.496;13.456;2023-12-20T10:52:56;16.00;;;3.03;;
25758;SDS011;13604;52.496;13.456;2023-12-20T10:55:22;21.58;;;3.55;;
25758;SDS011;13604;52.496;13.456;2023-12-20T10:57:49;9.95;;;2.53;;
25758;SDS011;13604;52.496;13.456;2023-12-20T11:00:16;8.88;;;2.80;;
25758;SDS011;13604;52.496;13.456;2023-12-20T11:02:43;7.93;;;2.40;;
25758;SDS011;13604;52.496;13.456;2023-12-20T11:10:51;14.18;;;3.10;;
25758;SDS011;13604;52.496;13.456;2023-12-20T11:13:32;10.38;;;2.65;;
25758;SDS011;13604;52.496;13.456;2023-12-20T11:16:02;16.20;;;3.73;;
25758;SDS011;13604;52.496;13.456;2023-12-20T11:18:28;17.35;;;3.25;;
25758;SDS011;13604;52.496;13.456;2023-12-20T11:20:55;22.65;;;3.35;;
25758;SDS011;13604;52.496;13.456;2023-12-20T11:23:25;13.90;;;3.20;;
25758;SDS011;13604;52.496;13.456;2023-12-20T11:25:54;17.08;;;3.45;;
25758;SDS011;13604;52.496;13.456;2023-12-20T11:28:22;13.93;;;3.58;;
25758;SDS011;13604;52.496;13.456;2023-12-20T11:30:52;22.35;;;3.55;;
25758;SDS011;13604;52.496;13.456;2023-12-20T11:33:22;10.43;;;2.97;;
25758;SDS011;13604;52.496;13.456;2023-12-20T11:35:48;10.82;;;2.88;;
25758;SDS011;13604;52.496;13.456;2023-12-20T11:38:14;18.88;;;2.90;;
25758;SDS011;13604;52.496;13.456;2023-12-20T11:40:40;16.00;;;3.53;;
25758;SDS011;13604;52.496;13.456;2023-12-20T11:43:06;15.07;;;3.10;;
25758;SDS011;13604;52.496;13.456;2023-12-20T11:45:31;13.13;;;3.15;;
25758;SDS011;13604;52.496;13.456;2023-12-20T11:47:57;14.07;;;3.72;;
25758;SDS011;13604;52.496;13.456;2023-12-20T11:50:23;14.30;;;3.30;;
25758;SDS011;13604;52.496;13.456;2023-12-20T11:52:49;14.30;;;2.70;;
25758;SDS011;13604;52.496;13.456;2023-12-20T11:55:16;10.40;;;3.63;;
25758;SDS011;13604;52.496;13.456;2023-12-20T11:57:42;14.38;;;3.15;;
25758;SDS011;13604;52.496;13.456;2023-12-20T12:00:08;13.55;;;3.10;;
25758;SDS011;13604;52.496;13.456;2023-12-20T12:02:34;12.73;;;3.17;;
25758;SDS011;13604;52.496;13.456;2023-12-20T12:05:00;14.02;;;3.47;;
25758;SDS011;13604;52.496;13.456;2023-12-20T12:07:25;15.55;;;3.00;;
25758;SDS011;13604;52.496;13.456;2023-12-20T12:09:51;13.10;;;2.72;;
25758;SDS011;13604;52.496;13.456;2023-12-20T12:12:16;13.10;;;3.20;;
25758;SDS011;13604;52.496;13.456;2023-12-20T12:14:43;13.57;;;2.95;;
25758;SDS011;13604;52.496;13.456;2023-12-20T12:17:12;10.07;;;2.88;;
25758;SDS011;13604;52.496;13.456;2023-12-20T12:19:39;15.95;;;2.63;;
25758;SDS011;13604;52.496;13.456;2023-12-20T12:22:30;14.27;;;3.03;;
25758;SDS011;13604;52.496;13.456;2023-12-20T12:24:58;10.07;;;2.72;;
25758;SDS011;13604;52.496;13.456;2023-12-20T12:27:24;14.40;;;3.10;;
25758;SDS011;13604;52.496;13.456;2023-12-20T12:30:02;15.15;;;3.30;;
25758;SDS011;13604;52.496;13.456;2023-12-20T12:32:29;9.25;;;2.90;;
25758;SDS011;13604;52.496;13.456;2023-12-20T12:34:54;10.18;;;3.00;;
25758;SDS011;13604;52.496;13.456;2023-12-20T12:37:20;12.55;;;2.67;;
25758;SDS011;13604;52.496;13.456;2023-12-20T12:39:48;15.60;;;3.10;;
25758;SDS011;13604;52.496;13.456;2023-12-20T12:42:13;9.13;;;2.97;;
25758;SDS011;13604;52.496;13.456;2023-12-20T12:44:39;12.50;;;3.53;;
25758;SDS011;13604;52.496;13.456;2023-12-20T12:47:04;19.90;;;3.58;;
25758;SDS011;13604;52.496;13.456;2023-12-20T12:49:30;15.95;;;3.95;;
25758;SDS011;13604;52.496;13.456;2023-12-20T12:51:57;15.38;;;3.22;;
25758;SDS011;13604;52.496;13.456;2023-12-20T12:54:23;11.02;;;3.40;;
25758;SDS011;13604;52.496;13.456;2023-12-20T12:56:48;12.57;;;3.92;;
25758;SDS011;13604;52.496;13.456;2023-12-20T12:59:15;11.30;;;3.70;;
25758;SDS011;13604;52.496;13.456;2023-12-20T13:01:40;17.50;;;4.45;;
25758;SDS011;13604;52.496;13.456;2023-12-20T13:04:06;14.63;;;3.97;;
25758;SDS011;13604;52.496;13.456;2023-12-20T13:06:35;15.93;;;5.38;;
25758;SDS011;13604;52.496;13.456;2023-12-20T13:09:00;13.82;;;3.70;;
25758;SDS011;13604;52.496;13.456;2023-12-20T13:11:25;12.43;;;4.25;;
25758;SDS011;13604;52.496;13.456;2023-12-20T13:13:51;15.52;;;4.72;;
25758;SDS011;13604;52.496;13.456;2023-12-20T13:16:16;15.52;;;4.55;;
25758;SDS011;13604;52.496;13.456;2023-12-20T13:18:41;16.67;;;4.53;;
25758;SDS011;13604;52.496;13.456;2023-12-20T13:21:07;15.75;;;5.32;;
25758;SDS011;13604;52.496;13.456;2023-12-20T13:23:33;16.30;;;5.25;;
25758;SDS011;13604;52.496;13.456;2023-12-20T13:25:58;19.38;;;5.65;;
25758;SDS011;13604;52.496;13.456;2023-12-20T13:28:24;27.30;;;7.22;;
25758;SDS011;13604;52.496;13.456;2023-12-20T13:30:49;12.85;;;3.80;;
25758;SDS011;13604;52.496;13.456;2023-12-20T13:33:14;8.95;;;3.20;;
25758;SDS011;13604;52.496;13.456;2023-12-20T13:35:40;8.75;;;2.35;;
25758;SDS011;13604;52.496;13.456;2023-12-20T13:38:05;6.20;;;2.20;;
25758;SDS011;13604;52.496;13.456;2023-12-20T13:40:30;12.50;;;2.90;;
25758;SDS011;13604;52.496;13.456;2023-12-20T13:42:56;5.63;;;2.08;;
25758;SDS011;13604;52.496;13.456;2023-12-20T13:45:21;12.90;;;2.80;;
25758;SDS011;13604;52.496;13.456;2023-12-20T13:47:46;5.53;;;1.70;;
25758;SDS011;13604;52.496;13.456;2023-12-20T13:50:12;8.40;;;1.80;;
25758;SDS011;13604;52.496;13.456;2023-12-20T13:52:37;5.82;;;2.28;;
25758;SDS011;13604;52.496;13.456;2023-12-20T13:55:03;7.78;;;2.10;;
25758;SDS011;13604;52.496;13.456;2023-12-20T13:57:30;12.20;;;2.28;;
25758;SDS011;13604;52.496;13.456;2023-12-20T13:59:55;6.07;;;1.77;;
25758;SDS011;13604;52.496;13.456;2023-12-20T14:02:23;6.07;;;2.40;;
25758;SDS011;13604;52.496;13.456;2023-12-20T14:04:49;4.82;;;2.65;;
25758;SDS011;13604;52.496;13.456;2023-12-20T14:07:14;8.48;;;2.70;;
25758;SDS011;13604;52.496;13.456;2023-12-20T14:09:40;7.93;;;3.15;;
25758;SDS011;13604;52.496;13.456;2023-12-20T14:12:10;9.68;;;2.30;;
25758;SDS011;13604;52.496;13.456;2023-12-20T14:14:36;6.82;;;2.65;;
25758;SDS011;13604;52.496;13.456;2023-12-20T14:17:01;5.50;;;2.30;;
25758;SDS011;13604;52.496;13.456;2023-12-20T14:19:26;5.68;;;2.13;;